Miltona, Minnesota
Current Conditions -  °F | °C
As of 5:53 AM on Monday 26 Jan 2015 (Local Time) from KAXN Reporting Station
Clear Clear  
Wind Chill: -5°   Ceiling: Unl
Heat Index:   Visibility: 10mi
Dew Point: -2°   Wind: 10mph
Humidity: 88%   Direction: 280°W
Pressure: 29.65"   Gusts: NA
Location:  46.04°N, 95.29°W
Report Text: KAXN 261153Z AUTO 28009KT 10SM CLR 00/M02 A2965 RMK AO2 SLP060 60000 T00001017 10006 21033 56007
Loading
Personal Weather Stations






























Interactive Weather Map New forecast layout! Learn more

10-Day Weather Forecast

Advertisements
Track Severe Weather on mobile